sensor_id;sensor_type;location;lat;lon;timestamp;temperature;humidity
1988;DHT22;12775;46.994;15.498;2022-12-28T00:01:20;5.50;95.00
1988;DHT22;12775;46.994;15.498;2022-12-28T00:03:47;5.50;95.10
1988;DHT22;12775;46.994;15.498;2022-12-28T00:06:14;5.50;94.90
1988;DHT22;12775;46.994;15.498;2022-12-28T00:08:41;5.60;94.90
1988;DHT22;12775;46.994;15.498;2022-12-28T00:11:11;5.50;94.70
1988;DHT22;12775;46.994;15.498;2022-12-28T00:13:37;5.60;94.80
1988;DHT22;12775;46.994;15.498;2022-12-28T00:16:05;5.60;94.80
1988;DHT22;12775;46.994;15.498;2022-12-28T00:18:32;5.60;94.80
1988;DHT22;12775;46.994;15.498;2022-12-28T00:20:59;5.60;94.90
1988;DHT22;12775;46.994;15.498;2022-12-28T00:23:27;5.60;95.00
1988;DHT22;12775;46.994;15.498;2022-12-28T00:25:55;5.60;95.10
1988;DHT22;12775;46.994;15.498;2022-12-28T00:28:22;5.60;95.10
1988;DHT22;12775;46.994;15.498;2022-12-28T00:30:49;5.70;95.10
1988;DHT22;12775;46.994;15.498;2022-12-28T00:33:17;5.70;95.10
1988;DHT22;12775;46.994;15.498;2022-12-28T00:35:51;5.70;95.00
1988;DHT22;12775;46.994;15.498;2022-12-28T00:38:12;5.70;95.00
1988;DHT22;12775;46.994;15.498;2022-12-28T00:40:39;5.70;95.00
1988;DHT22;12775;46.994;15.498;2022-12-28T00:43:06;5.70;95.00
1988;DHT22;12775;46.994;15.498;2022-12-28T00:45:34;5.70;95.00
1988;DHT22;12775;46.994;15.498;2022-12-28T00:48:02;5.80;95.00
1988;DHT22;12775;46.994;15.498;2022-12-28T00:50:30;5.80;94.70
1988;DHT22;12775;46.994;15.498;2022-12-28T00:52:57;5.80;94.70
1988;DHT22;12775;46.994;15.498;2022-12-28T00:55:25;5.80;94.90
1988;DHT22;12775;46.994;15.498;2022-12-28T00:57:53;5.80;94.90
1988;DHT22;12775;46.994;15.498;2022-12-28T01:00:20;5.70;94.60
1988;DHT22;12775;46.994;15.498;2022-12-28T01:02:47;5.60;94.80
1988;DHT22;12775;46.994;15.498;2022-12-28T01:05:15;5.50;94.90
1988;DHT22;12775;46.994;15.498;2022-12-28T01:07:42;5.40;95.30
1988;DHT22;12775;46.994;15.498;2022-12-28T01:10:10;5.40;95.40
1988;DHT22;12775;46.994;15.498;2022-12-28T01:12:38;5.40;95.40
1988;DHT22;12775;46.994;15.498;2022-12-28T01:15:06;5.30;95.40
1988;DHT22;12775;46.994;15.498;2022-12-28T01:17:35;5.30;95.60
1988;DHT22;12775;46.994;15.498;2022-12-28T01:20:03;5.30;95.70
1988;DHT22;12775;46.994;15.498;2022-12-28T01:25:05;5.20;96.10
1988;DHT22;12775;46.994;15.498;2022-12-28T01:27:33;5.30;96.00
1988;DHT22;12775;46.994;15.498;2022-12-28T01:30:01;5.20;96.10
1988;DHT22;12775;46.994;15.498;2022-12-28T01:32:28;5.10;96.10
1988;DHT22;12775;46.994;15.498;2022-12-28T01:34:55;5.10;96.20
1988;DHT22;12775;46.994;15.498;2022-12-28T01:37:24;5.10;96.30
1988;DHT22;12775;46.994;15.498;2022-12-28T01:39:52;5.20;96.30
1988;DHT22;12775;46.994;15.498;2022-12-28T01:42:19;5.10;96.50
1988;DHT22;12775;46.994;15.498;2022-12-28T01:44:48;5.20;96.60
1988;DHT22;12775;46.994;15.498;2022-12-28T01:47:17;5.20;96.50
1988;DHT22;12775;46.994;15.498;2022-12-28T01:50:05;5.20;96.20
1988;DHT22;12775;46.994;15.498;2022-12-28T01:52:36;5.20;96.20
1988;DHT22;12775;46.994;15.498;2022-12-28T01:55:09;5.30;96.00
1988;DHT22;12775;46.994;15.498;2022-12-28T01:57:38;5.30;95.80
1988;DHT22;12775;46.994;15.498;2022-12-28T02:00:12;5.40;95.70
1988;DHT22;12775;46.994;15.498;2022-12-28T02:02:40;5.30;95.60
1988;DHT22;12775;46.994;15.498;2022-12-28T02:05:07;5.40;95.40
1988;DHT22;12775;46.994;15.498;2022-12-28T02:07:42;5.40;95.20
1988;DHT22;12775;46.994;15.498;2022-12-28T02:10:09;5.40;95.10
1988;DHT22;12775;46.994;15.498;2022-12-28T02:12:36;5.40;94.70
1988;DHT22;12775;46.994;15.498;2022-12-28T02:15:04;5.40;94.40
1988;DHT22;12775;46.994;15.498;2022-12-28T02:17:31;5.30;94.10
1988;DHT22;12775;46.994;15.498;2022-12-28T02:19:58;5.30;93.90
1988;DHT22;12775;46.994;15.498;2022-12-28T02:22:43;5.30;93.90
1988;DHT22;12775;46.994;15.498;2022-12-28T02:25:27;5.30;94.00
1988;DHT22;12775;46.994;15.498;2022-12-28T02:30:28;5.10;93.50
1988;DHT22;12775;46.994;15.498;2022-12-28T02:32:59;5.10;93.50
1988;DHT22;12775;46.994;15.498;2022-12-28T02:35:48;5.00;93.60
1988;DHT22;12775;46.994;15.498;2022-12-28T02:38:37;4.80;94.00
1988;DHT22;12775;46.994;15.498;2022-12-28T02:41:14;4.70;94.30
1988;DHT22;12775;46.994;15.498;2022-12-28T02:43:40;4.70;94.30
1988;DHT22;12775;46.994;15.498;2022-12-28T02:46:18;4.60;94.40
1988;DHT22;12775;46.994;15.498;2022-12-28T02:48:51;4.50;94.00
1988;DHT22;12775;46.994;15.498;2022-12-28T02:51:40;4.40;94.40
1988;DHT22;12775;46.994;15.498;2022-12-28T02:54:19;4.40;94.50
1988;DHT22;12775;46.994;15.498;2022-12-28T02:56:45;4.30;94.80
1988;DHT22;12775;46.994;15.498;2022-12-28T02:59:15;4.30;95.30
1988;DHT22;12775;46.994;15.498;2022-12-28T03:01:57;4.30;94.70
1988;DHT22;12775;46.994;15.498;2022-12-28T03:04:40;4.30;94.30
1988;DHT22;12775;46.994;15.498;2022-12-28T03:07:16;4.30;94.10
1988;DHT22;12775;46.994;15.498;2022-12-28T03:09:49;4.20;93.80
1988;DHT22;12775;46.994;15.498;2022-12-28T03:12:17;4.20;93.60
1988;DHT22;12775;46.994;15.498;2022-12-28T03:14:49;4.10;93.90
1988;DHT22;12775;46.994;15.498;2022-12-28T03:17:15;4.10;93.80
1988;DHT22;12775;46.994;15.498;2022-12-28T03:19:50;4.10;93.50
1988;DHT22;12775;46.994;15.498;2022-12-28T03:22:22;4.10;93.90
1988;DHT22;12775;46.994;15.498;2022-12-28T03:24:55;4.10;93.70
1988;DHT22;12775;46.994;15.498;2022-12-28T03:27:28;4.00;93.90
1988;DHT22;12775;46.994;15.498;2022-12-28T03:30:03;4.00;93.90
1988;DHT22;12775;46.994;15.498;2022-12-28T03:32:33;3.90;93.90
1988;DHT22;12775;46.994;15.498;2022-12-28T03:35:00;3.90;93.60
1988;DHT22;12775;46.994;15.498;2022-12-28T03:37:31;3.80;93.50
1988;DHT22;12775;46.994;15.498;2022-12-28T03:40:39;3.80;93.60
1988;DHT22;12775;46.994;15.498;2022-12-28T03:42:48;3.70;93.40
1988;DHT22;12775;46.994;15.498;2022-12-28T03:45:26;3.70;94.00
1988;DHT22;12775;46.994;15.498;2022-12-28T03:47:51;3.60;94.40
1988;DHT22;12775;46.994;15.498;2022-12-28T03:50:20;3.50;94.60
1988;DHT22;12775;46.994;15.498;2022-12-28T03:52:47;3.50;94.60
1988;DHT22;12775;46.994;15.498;2022-12-28T03:55:15;3.50;94.70
1988;DHT22;12775;46.994;15.498;2022-12-28T03:57:42;3.40;94.50
1988;DHT22;12775;46.994;15.498;2022-12-28T04:00:10;3.40;94.50
1988;DHT22;12775;46.994;15.498;2022-12-28T04:02:37;3.40;94.40
1988;DHT22;12775;46.994;15.498;2022-12-28T04:05:06;3.40;94.10
1988;DHT22;12775;46.994;15.498;2022-12-28T04:07:34;3.40;94.10
1988;DHT22;12775;46.994;15.498;2022-12-28T04:10:02;3.40;94.30
1988;DHT22;12775;46.994;15.498;2022-12-28T04:12:29;3.40;94.40
1988;DHT22;12775;46.994;15.498;2022-12-28T04:14:57;3.40;94.20
1988;DHT22;12775;46.994;15.498;2022-12-28T04:17:25;3.30;94.30
1988;DHT22;12775;46.994;15.498;2022-12-28T04:19:52;3.30;94.10
1988;DHT22;12775;46.994;15.498;2022-12-28T04:22:20;3.30;94.10
1988;DHT22;12775;46.994;15.498;2022-12-28T04:24:47;3.20;94.20
1988;DHT22;12775;46.994;15.498;2022-12-28T04:27:14;3.20;94.40
1988;DHT22;12775;46.994;15.498;2022-12-28T04:29:42;3.20;94.40
1988;DHT22;12775;46.994;15.498;2022-12-28T04:32:09;3.10;94.60
1988;DHT22;12775;46.994;15.498;2022-12-28T04:34:37;3.10;94.30
1988;DHT22;12775;46.994;15.498;2022-12-28T04:37:05;3.10;93.90
1988;DHT22;12775;46.994;15.498;2022-12-28T04:39:32;3.10;93.50
1988;DHT22;12775;46.994;15.498;2022-12-28T04:41:59;3.10;93.20
1988;DHT22;12775;46.994;15.498;2022-12-28T04:44:26;3.10;93.70
1988;DHT22;12775;46.994;15.498;2022-12-28T04:46:54;3.00;93.90
1988;DHT22;12775;46.994;15.498;2022-12-28T04:49:22;3.00;94.20
1988;DHT22;12775;46.994;15.498;2022-12-28T04:51:49;3.00;94.40
1988;DHT22;12775;46.994;15.498;2022-12-28T04:54:17;2.90;94.70
1988;DHT22;12775;46.994;15.498;2022-12-28T04:56:44;2.80;94.40
1988;DHT22;12775;46.994;15.498;2022-12-28T04:59:11;2.70;94.70
1988;DHT22;12775;46.994;15.498;2022-12-28T05:01:39;2.70;94.90
1988;DHT22;12775;46.994;15.498;2022-12-28T05:04:07;2.70;95.10
1988;DHT22;12775;46.994;15.498;2022-12-28T05:06:34;2.70;94.90
1988;DHT22;12775;46.994;15.498;2022-12-28T05:09:02;2.70;94.70
1988;DHT22;12775;46.994;15.498;2022-12-28T05:11:29;2.70;94.20
1988;DHT22;12775;46.994;15.498;2022-12-28T05:13:56;2.70;94.20
1988;DHT22;12775;46.994;15.498;2022-12-28T05:16:24;2.70;94.00
1988;DHT22;12775;46.994;15.498;2022-12-28T05:18:50;2.60;94.00
1988;DHT22;12775;46.994;15.498;2022-12-28T05:21:19;2.70;94.00
1988;DHT22;12775;46.994;15.498;2022-12-28T05:23:45;2.60;94.10
1988;DHT22;12775;46.994;15.498;2022-12-28T05:26:13;2.60;94.20
1988;DHT22;12775;46.994;15.498;2022-12-28T05:28:40;2.60;94.30
1988;DHT22;12775;46.994;15.498;2022-12-28T05:31:09;2.60;94.40
1988;DHT22;12775;46.994;15.498;2022-12-28T05:33:35;2.60;94.10
1988;DHT22;12775;46.994;15.498;2022-12-28T05:36:05;2.60;94.30
1988;DHT22;12775;46.994;15.498;2022-12-28T05:38:34;2.50;94.30
1988;DHT22;12775;46.994;15.498;2022-12-28T05:41:13;2.50;94.50
1988;DHT22;12775;46.994;15.498;2022-12-28T05:43:40;2.50;94.30
1988;DHT22;12775;46.994;15.498;2022-12-28T05:46:09;2.40;94.40
1988;DHT22;12775;46.994;15.498;2022-12-28T05:48:36;2.40;94.10
1988;DHT22;12775;46.994;15.498;2022-12-28T05:51:05;2.40;94.20
1988;DHT22;12775;46.994;15.498;2022-12-28T05:53:32;2.30;94.30
1988;DHT22;12775;46.994;15.498;2022-12-28T05:56:09;2.30;94.30
1988;DHT22;12775;46.994;15.498;2022-12-28T05:58:35;2.30;94.20
1988;DHT22;12775;46.994;15.498;2022-12-28T06:01:04;2.30;94.30
1988;DHT22;12775;46.994;15.498;2022-12-28T06:03:31;2.20;94.80
1988;DHT22;12775;46.994;15.498;2022-12-28T06:06:02;2.20;95.40
1988;DHT22;12775;46.994;15.498;2022-12-28T06:08:30;2.20;95.40
1988;DHT22;12775;46.994;15.498;2022-12-28T06:10:58;2.20;94.90
1988;DHT22;12775;46.994;15.498;2022-12-28T06:13:26;2.20;94.60
1988;DHT22;12775;46.994;15.498;2022-12-28T06:15:53;2.20;94.40
1988;DHT22;12775;46.994;15.498;2022-12-28T06:18:20;2.20;94.60
1988;DHT22;12775;46.994;15.498;2022-12-28T06:20:49;2.10;94.60
1988;DHT22;12775;46.994;15.498;2022-12-28T06:23:17;2.10;95.10
1988;DHT22;12775;46.994;15.498;2022-12-28T06:25:44;2.10;94.90
1988;DHT22;12775;46.994;15.498;2022-12-28T06:28:11;2.10;94.90
1988;DHT22;12775;46.994;15.498;2022-12-28T06:30:38;2.20;94.90
1988;DHT22;12775;46.994;15.498;2022-12-28T06:33:05;2.10;94.90
1988;DHT22;12775;46.994;15.498;2022-12-28T06:35:32;2.10;94.90
1988;DHT22;12775;46.994;15.498;2022-12-28T06:38:00;2.00;94.80
1988;DHT22;12775;46.994;15.498;2022-12-28T06:40:27;1.90;95.00
1988;DHT22;12775;46.994;15.498;2022-12-28T06:42:54;1.80;95.20
1988;DHT22;12775;46.994;15.498;2022-12-28T06:45:22;1.80;95.30
1988;DHT22;12775;46.994;15.498;2022-12-28T06:47:49;1.80;95.40
1988;DHT22;12775;46.994;15.498;2022-12-28T06:50:16;1.80;95.30
1988;DHT22;12775;46.994;15.498;2022-12-28T06:52:44;1.70;94.90
1988;DHT22;12775;46.994;15.498;2022-12-28T06:55:11;1.70;94.80
1988;DHT22;12775;46.994;15.498;2022-12-28T06:57:39;1.70;94.50
1988;DHT22;12775;46.994;15.498;2022-12-28T07:00:08;1.70;94.70
1988;DHT22;12775;46.994;15.498;2022-12-28T07:02:35;1.70;95.00
1988;DHT22;12775;46.994;15.498;2022-12-28T07:05:04;1.70;95.10
1988;DHT22;12775;46.994;15.498;2022-12-28T07:07:31;1.50;95.70
1988;DHT22;12775;46.994;15.498;2022-12-28T07:09:58;1.60;95.80
1988;DHT22;12775;46.994;15.498;2022-12-28T07:12:26;1.50;95.90
1988;DHT22;12775;46.994;15.498;2022-12-28T07:14:53;1.50;95.90
1988;DHT22;12775;46.994;15.498;2022-12-28T07:17:21;1.50;95.70
1988;DHT22;12775;46.994;15.498;2022-12-28T07:19:48;1.50;96.00
1988;DHT22;12775;46.994;15.498;2022-12-28T07:22:15;1.50;96.20
1988;DHT22;12775;46.994;15.498;2022-12-28T07:24:43;1.50;96.60
1988;DHT22;12775;46.994;15.498;2022-12-28T07:27:11;1.50;96.90
1988;DHT22;12775;46.994;15.498;2022-12-28T07:29:38;1.60;97.00
1988;DHT22;12775;46.994;15.498;2022-12-28T07:32:05;1.60;97.00
1988;DHT22;12775;46.994;15.498;2022-12-28T07:34:33;1.60;97.20
1988;DHT22;12775;46.994;15.498;2022-12-28T07:37:00;1.60;97.40
1988;DHT22;12775;46.994;15.498;2022-12-28T07:39:28;1.60;97.40
1988;DHT22;12775;46.994;15.498;2022-12-28T07:41:55;1.70;97.70
1988;DHT22;12775;46.994;15.498;2022-12-28T07:44:23;1.70;97.70
1988;DHT22;12775;46.994;15.498;2022-12-28T07:46:51;1.70;97.80
1988;DHT22;12775;46.994;15.498;2022-12-28T07:49:18;1.80;98.10
1988;DHT22;12775;46.994;15.498;2022-12-28T07:51:45;1.80;98.20
1988;DHT22;12775;46.994;15.498;2022-12-28T07:54:13;1.80;98.60
1988;DHT22;12775;46.994;15.498;2022-12-28T07:56:40;1.80;99.00
1988;DHT22;12775;46.994;15.498;2022-12-28T07:59:08;1.70;99.20
1988;DHT22;12775;46.994;15.498;2022-12-28T08:01:35;1.70;99.60
1988;DHT22;12775;46.994;15.498;2022-12-28T08:04:03;1.70;99.80
1988;DHT22;12775;46.994;15.498;2022-12-28T08:06:31;1.70;99.90
1988;DHT22;12775;46.994;15.498;2022-12-28T08:08:58;1.60;99.90
1988;DHT22;12775;46.994;15.498;2022-12-28T08:11:25;1.60;99.90
1988;DHT22;12775;46.994;15.498;2022-12-28T08:13:52;1.60;99.90
1988;DHT22;12775;46.994;15.498;2022-12-28T08:16:20;1.70;99.90
1988;DHT22;12775;46.994;15.498;2022-12-28T08:18:47;1.70;99.90
1988;DHT22;12775;46.994;15.498;2022-12-28T08:21:16;1.70;99.90
1988;DHT22;12775;46.994;15.498;2022-12-28T08:23:42;1.80;99.90
1988;DHT22;12775;46.994;15.498;2022-12-28T08:26:11;1.80;99.90
1988;DHT22;12775;46.994;15.498;2022-12-28T08:28:38;1.90;99.90
1988;DHT22;12775;46.994;15.498;2022-12-28T08:31:11;1.90;99.90
1988;DHT22;12775;46.994;15.498;2022-12-28T08:33:36;1.90;99.90
1988;DHT22;12775;46.994;15.498;2022-12-28T08:36:05;2.00;99.90
1988;DHT22;12775;46.994;15.498;2022-12-28T08:38:32;2.10;99.90
1988;DHT22;12775;46.994;15.498;2022-12-28T08:41:00;2.20;99.90
1988;DHT22;12775;46.994;15.498;2022-12-28T08:43:27;2.20;99.90
1988;DHT22;12775;46.994;15.498;2022-12-28T08:46:00;2.30;99.90
1988;DHT22;12775;46.994;15.498;2022-12-28T08:48:27;2.30;99.90
1988;DHT22;12775;46.994;15.498;2022-12-28T08:50:54;2.40;99.90
1988;DHT22;12775;46.994;15.498;2022-12-28T08:53:21;2.40;99.90
1988;DHT22;12775;46.994;15.498;2022-12-28T08:55:50;2.40;99.90
1988;DHT22;12775;46.994;15.498;2022-12-28T08:58:18;2.30;99.90
1988;DHT22;12775;46.994;15.498;2022-12-28T09:00:47;2.30;99.90
1988;DHT22;12775;46.994;15.498;2022-12-28T09:03:14;2.30;99.90
1988;DHT22;12775;46.994;15.498;2022-12-28T09:05:43;2.20;99.90
1988;DHT22;12775;46.994;15.498;2022-12-28T09:08:10;2.30;99.90
1988;DHT22;12775;46.994;15.498;2022-12-28T09:10:37;2.20;99.90
1988;DHT22;12775;46.994;15.498;2022-12-28T09:13:04;2.40;99.90
1988;DHT22;12775;46.994;15.498;2022-12-28T09:15:31;2.40;99.90
1988;DHT22;12775;46.994;15.498;2022-12-28T09:17:59;2.50;99.90
1988;DHT22;12775;46.994;15.498;2022-12-28T09:20:27;2.50;99.90
1988;DHT22;12775;46.994;15.498;2022-12-28T09:22:54;2.60;99.90
1988;DHT22;12775;46.994;15.498;2022-12-28T09:25:21;2.50;99.90
1988;DHT22;12775;46.994;15.498;2022-12-28T09:27:49;2.70;99.90
1988;DHT22;12775;46.994;15.498;2022-12-28T09:30:17;2.80;99.90
1988;DHT22;12775;46.994;15.498;2022-12-28T09:32:45;2.80;99.90
1988;DHT22;12775;46.994;15.498;2022-12-28T09:35:13;2.90;99.90
1988;DHT22;12775;46.994;15.498;2022-12-28T09:37:40;2.90;99.90
1988;DHT22;12775;46.994;15.498;2022-12-28T09:40:08;2.90;99.90
1988;DHT22;12775;46.994;15.498;2022-12-28T09:42:35;3.00;99.90
1988;DHT22;12775;46.994;15.498;2022-12-28T09:45:04;3.10;99.90
1988;DHT22;12775;46.994;15.498;2022-12-28T09:47:38;3.20;99.90
1988;DHT22;12775;46.994;15.498;2022-12-28T09:50:23;3.20;99.90
1988;DHT22;12775;46.994;15.498;2022-12-28T09:53:14;3.30;99.90
1988;DHT22;12775;46.994;15.498;2022-12-28T09:55:38;3.40;99.90
1988;DHT22;12775;46.994;15.498;2022-12-28T09:58:05;3.60;99.90
1988;DHT22;12775;46.994;15.498;2022-12-28T10:00:38;3.70;99.90
1988;DHT22;12775;46.994;15.498;2022-12-28T10:03:09;3.60;99.90
1988;DHT22;12775;46.994;15.498;2022-12-28T10:05:33;3.90;99.90
1988;DHT22;12775;46.994;15.498;2022-12-28T10:08:00;4.10;99.90
1988;DHT22;12775;46.994;15.498;2022-12-28T10:10:27;4.30;99.90
1988;DHT22;12775;46.994;15.498;2022-12-28T10:12:56;4.40;99.90
1988;DHT22;12775;46.994;15.498;2022-12-28T10:15:24;4.60;99.90
1988;DHT22;12775;46.994;15.498;2022-12-28T10:17:50;4.80;99.90
1988;DHT22;12775;46.994;15.498;2022-12-28T10:20:20;5.00;99.90
1988;DHT22;12775;46.994;15.498;2022-12-28T10:22:50;5.10;99.90
1988;DHT22;12775;46.994;15.498;2022-12-28T10:25:18;5.30;99.90
1988;DHT22;12775;46.994;15.498;2022-12-28T10:27:44;5.50;99.90
1988;DHT22;12775;46.994;15.498;2022-12-28T10:30:18;5.60;99.90
1988;DHT22;12775;46.994;15.498;2022-12-28T10:32:48;5.70;99.90
1988;DHT22;12775;46.994;15.498;2022-12-28T10:35:27;5.90;99.90
1988;DHT22;12775;46.994;15.498;2022-12-28T10:37:58;6.10;99.90
1988;DHT22;12775;46.994;15.498;2022-12-28T10:40:24;6.30;99.90
1988;DHT22;12775;46.994;15.498;2022-12-28T10:42:51;6.50;99.90
1988;DHT22;12775;46.994;15.498;2022-12-28T10:45:19;6.40;99.90
1988;DHT22;12775;46.994;15.498;2022-12-28T10:47:47;6.80;99.90
1988;DHT22;12775;46.994;15.498;2022-12-28T10:52:55;7.20;99.90
1988;DHT22;12775;46.994;15.498;2022-12-28T10:55:28;7.30;99.90
1988;DHT22;12775;46.994;15.498;2022-12-28T10:57:54;7.50;99.90
1988;DHT22;12775;46.994;15.498;2022-12-28T11:00:21;7.60;99.90
1988;DHT22;12775;46.994;15.498;2022-12-28T11:02:49;7.80;99.40
1988;DHT22;12775;46.994;15.498;2022-12-28T11:05:18;7.90;99.60
1988;DHT22;12775;46.994;15.498;2022-12-28T11:07:44;8.00;99.60
1988;DHT22;12775;46.994;15.498;2022-12-28T11:10:14;8.10;99.80
1988;DHT22;12775;46.994;15.498;2022-12-28T11:12:42;8.30;99.80
1988;DHT22;12775;46.994;15.498;2022-12-28T11:15:14;8.40;99.70
1988;DHT22;12775;46.994;15.498;2022-12-28T11:17:40;8.50;99.50
1988;DHT22;12775;46.994;15.498;2022-12-28T11:20:16;8.60;99.20
1988;DHT22;12775;46.994;15.498;2022-12-28T11:22:43;8.70;99.00
1988;DHT22;12775;46.994;15.498;2022-12-28T11:25:13;8.80;98.70
1988;DHT22;12775;46.994;15.498;2022-12-28T11:27:37;8.80;98.50
1988;DHT22;12775;46.994;15.498;2022-12-28T11:30:05;8.90;98.50
1988;DHT22;12775;46.994;15.498;2022-12-28T11:32:35;9.00;98.10
1988;DHT22;12775;46.994;15.498;2022-12-28T11:35:00;9.10;97.90
1988;DHT22;12775;46.994;15.498;2022-12-28T11:37:28;9.20;97.10
1988;DHT22;12775;46.994;15.498;2022-12-28T11:39:55;9.30;95.80
1988;DHT22;12775;46.994;15.498;2022-12-28T11:42:51;9.30;96.50
1988;DHT22;12775;46.994;15.498;2022-12-28T11:45:13;9.40;96.80
1988;DHT22;12775;46.994;15.498;2022-12-28T11:47:40;9.50;96.00
1988;DHT22;12775;46.994;15.498;2022-12-28T11:50:52;9.60;95.80
1988;DHT22;12775;46.994;15.498;2022-12-28T11:55:42;9.60;95.10
1988;DHT22;12775;46.994;15.498;2022-12-28T11:59:00;9.70;94.80
1988;DHT22;12775;46.994;15.498;2022-12-28T12:01:42;9.70;94.30
1988;DHT22;12775;46.994;15.498;2022-12-28T12:04:18;9.70;94.50
1988;DHT22;12775;46.994;15.498;2022-12-28T12:07:06;9.80;94.20
1988;DHT22;12775;46.994;15.498;2022-12-28T12:09:44;9.50;92.10
1988;DHT22;12775;46.994;15.498;2022-12-28T12:12:32;9.50;92.50
1988;DHT22;12775;46.994;15.498;2022-12-28T12:15:02;9.50;92.50
1988;DHT22;12775;46.994;15.498;2022-12-28T12:17:36;9.50;92.70
1988;DHT22;12775;46.994;15.498;2022-12-28T12:20:04;9.60;93.90
1988;DHT22;12775;46.994;15.498;2022-12-28T12:22:32;9.70;94.10
1988;DHT22;12775;46.994;15.498;2022-12-28T12:25:07;9.70;93.50
1988;DHT22;12775;46.994;15.498;2022-12-28T12:27:35;9.80;93.10
1988;DHT22;12775;46.994;15.498;2022-12-28T12:30:02;9.90;93.60
1988;DHT22;12775;46.994;15.498;2022-12-28T12:32:41;9.80;92.30
1988;DHT22;12775;46.994;15.498;2022-12-28T12:35:06;9.60;91.30
1988;DHT22;12775;46.994;15.498;2022-12-28T12:37:55;9.60;91.90
1988;DHT22;12775;46.994;15.498;2022-12-28T12:43:46;9.70;91.80
1988;DHT22;12775;46.994;15.498;2022-12-28T12:48:43;9.80;92.40
1988;DHT22;12775;46.994;15.498;2022-12-28T12:51:18;9.70;91.30
1988;DHT22;12775;46.994;15.498;2022-12-28T12:54:17;9.60;91.30
1988;DHT22;12775;46.994;15.498;2022-12-28T12:56:51;9.60;91.00
1988;DHT22;12775;46.994;15.498;2022-12-28T12:59:30;9.70;91.10
1988;DHT22;12775;46.994;15.498;2022-12-28T13:02:07;9.80;91.70
1988;DHT22;12775;46.994;15.498;2022-12-28T13:04:30;9.90;91.90
1988;DHT22;12775;46.994;15.498;2022-12-28T13:06:58;9.90;91.90
1988;DHT22;12775;46.994;15.498;2022-12-28T13:09:25;10.00;91.40
1988;DHT22;12775;46.994;15.498;2022-12-28T13:11:53;10.10;91.10
1988;DHT22;12775;46.994;15.498;2022-12-28T13:14:21;10.10;91.10
1988;DHT22;12775;46.994;15.498;2022-12-28T13:16:49;10.10;90.90
1988;DHT22;12775;46.994;15.498;2022-12-28T13:19:17;10.10;90.20
1988;DHT22;12775;46.994;15.498;2022-12-28T13:21:45;10.10;90.50
1988;DHT22;12775;46.994;15.498;2022-12-28T13:24:29;10.20;90.80
1988;DHT22;12775;46.994;15.498;2022-12-28T13:26:58;10.20;91.00
1988;DHT22;12775;46.994;15.498;2022-12-28T13:29:26;10.10;90.30
1988;DHT22;12775;46.994;15.498;2022-12-28T13:31:52;10.10;90.10
1988;DHT22;12775;46.994;15.498;2022-12-28T13:34:26;10.00;90.10
1988;DHT22;12775;46.994;15.498;2022-12-28T13:36:56;10.00;90.40
1988;DHT22;12775;46.994;15.498;2022-12-28T13:39:23;10.00;90.40
1988;DHT22;12775;46.994;15.498;2022-12-28T13:41:50;10.00;90.30
1988;DHT22;12775;46.994;15.498;2022-12-28T13:44:25;10.00;90.50
1988;DHT22;12775;46.994;15.498;2022-12-28T13:46:57;10.00;90.70
1988;DHT22;12775;46.994;15.498;2022-12-28T13:49:22;10.00;91.00
1988;DHT22;12775;46.994;15.498;2022-12-28T13:51:49;10.00;90.90
1988;DHT22;12775;46.994;15.498;2022-12-28T13:54:16;9.90;91.30
1988;DHT22;12775;46.994;15.498;2022-12-28T13:56:45;9.90;91.30
1988;DHT22;12775;46.994;15.498;2022-12-28T13:59:14;9.90;91.80
1988;DHT22;12775;46.994;15.498;2022-12-28T14:01:41;9.90;91.50
1988;DHT22;12775;46.994;15.498;2022-12-28T14:04:10;9.80;90.90
1988;DHT22;12775;46.994;15.498;2022-12-28T14:06:37;9.80;90.80
1988;DHT22;12775;46.994;15.498;2022-12-28T14:09:04;9.80;91.10
1988;DHT22;12775;46.994;15.498;2022-12-28T14:11:31;9.70;91.00
1988;DHT22;12775;46.994;15.498;2022-12-28T14:13:59;9.70;91.00
1988;DHT22;12775;46.994;15.498;2022-12-28T14:16:26;9.60;91.10
1988;DHT22;12775;46.994;15.498;2022-12-28T14:18:53;9.60;91.20
1988;DHT22;12775;46.994;15.498;2022-12-28T14:21:31;9.60;91.20
1988;DHT22;12775;46.994;15.498;2022-12-28T14:24:03;9.50;91.70
1988;DHT22;12775;46.994;15.498;2022-12-28T14:26:29;9.50;91.90
1988;DHT22;12775;46.994;15.498;2022-12-28T14:28:56;9.50;92.10
1988;DHT22;12775;46.994;15.498;2022-12-28T14:31:28;9.40;92.20
1988;DHT22;12775;46.994;15.498;2022-12-28T14:33:56;9.30;92.20
1988;DHT22;12775;46.994;15.498;2022-12-28T14:36:29;9.30;92.40
1988;DHT22;12775;46.994;15.498;2022-12-28T14:38:55;9.20;92.40
1988;DHT22;12775;46.994;15.498;2022-12-28T14:41:29;9.20;92.40
1988;DHT22;12775;46.994;15.498;2022-12-28T14:43:57;9.10;92.00
1988;DHT22;12775;46.994;15.498;2022-12-28T14:46:39;9.10;91.90
1988;DHT22;12775;46.994;15.498;2022-12-28T14:49:32;9.00;91.70
1988;DHT22;12775;46.994;15.498;2022-12-28T14:52:45;8.90;91.50
1988;DHT22;12775;46.994;15.498;2022-12-28T14:54:54;8.80;91.30
1988;DHT22;12775;46.994;15.498;2022-12-28T14:57:25;8.70;91.30
1988;DHT22;12775;46.994;15.498;2022-12-28T15:00:01;8.70;91.40
1988;DHT22;12775;46.994;15.498;2022-12-28T15:02:44;8.60;91.70
1988;DHT22;12775;46.994;15.498;2022-12-28T15:07:52;8.50;91.60
1988;DHT22;12775;46.994;15.498;2022-12-28T15:10:20;8.40;91.50
1988;DHT22;12775;46.994;15.498;2022-12-28T15:12:47;8.30;91.50
1988;DHT22;12775;46.994;15.498;2022-12-28T15:15:16;8.30;91.70
1988;DHT22;12775;46.994;15.498;2022-12-28T15:17:45;8.20;91.80
1988;DHT22;12775;46.994;15.498;2022-12-28T15:20:12;8.10;91.90
1988;DHT22;12775;46.994;15.498;2022-12-28T15:22:39;8.10;91.90
1988;DHT22;12775;46.994;15.498;2022-12-28T15:25:07;7.70;92.00
1988;DHT22;12775;46.994;15.498;2022-12-28T15:27:35;7.10;93.00
1988;DHT22;12775;46.994;15.498;2022-12-28T15:30:02;7.10;93.10
1988;DHT22;12775;46.994;15.498;2022-12-28T15:32:29;7.10;93.10
1988;DHT22;12775;46.994;15.498;2022-12-28T15:34:56;7.10;93.10
1988;DHT22;12775;46.994;15.498;2022-12-28T15:37:23;7.10;93.40
1988;DHT22;12775;46.994;15.498;2022-12-28T15:39:52;7.10;93.20
1988;DHT22;12775;46.994;15.498;2022-12-28T15:42:20;7.10;93.10
1988;DHT22;12775;46.994;15.498;2022-12-28T15:44:47;7.10;92.80
1988;DHT22;12775;46.994;15.498;2022-12-28T15:47:16;7.10;93.30
1988;DHT22;12775;46.994;15.498;2022-12-28T15:49:43;7.10;92.70
1988;DHT22;12775;46.994;15.498;2022-12-28T15:52:11;7.00;92.70
1988;DHT22;12775;46.994;15.498;2022-12-28T15:54:40;7.10;92.90
1988;DHT22;12775;46.994;15.498;2022-12-28T15:57:07;7.00;92.80
1988;DHT22;12775;46.994;15.498;2022-12-28T15:59:34;7.00;92.60
1988;DHT22;12775;46.994;15.498;2022-12-28T16:02:01;7.00;92.40
1988;DHT22;12775;46.994;15.498;2022-12-28T16:04:29;7.00;92.50
1988;DHT22;12775;46.994;15.498;2022-12-28T16:06:56;7.00;92.50
1988;DHT22;12775;46.994;15.498;2022-12-28T16:09:23;7.00;92.60
1988;DHT22;12775;46.994;15.498;2022-12-28T16:11:50;6.90;92.50
1988;DHT22;12775;46.994;15.498;2022-12-28T16:14:18;6.90;92.10
1988;DHT22;12775;46.994;15.498;2022-12-28T16:16:45;6.80;92.20
1988;DHT22;12775;46.994;15.498;2022-12-28T16:19:14;6.80;92.20